sensor_id;sensor_type;location;lat;lon;timestamp;P1;durP1;ratioP1;P2;durP2;ratioP2
80681;SDS011;70045;40.200;44.582;2023-10-09T00:01:21;4.85;;;2.03;;
80681;SDS011;70045;40.200;44.582;2023-10-09T00:03:47;7.05;;;2.45;;
80681;SDS011;70045;40.200;44.582;2023-10-09T00:06:15;6.25;;;2.30;;
80681;SDS011;70045;40.200;44.582;2023-10-09T00:08:41;6.30;;;2.50;;
80681;SDS011;70045;40.200;44.582;2023-10-09T00:11:06;7.47;;;2.55;;
80681;SDS011;70045;40.200;44.582;2023-10-09T00:13:32;7.05;;;2.47;;
80681;SDS011;70045;40.200;44.582;2023-10-09T00:15:58;6.72;;;2.63;;
80681;SDS011;70045;40.200;44.582;2023-10-09T00:18:33;7.90;;;2.60;;
80681;SDS011;70045;40.200;44.582;2023-10-09T00:20:58;7.03;;;2.60;;
80681;SDS011;70045;40.200;44.582;2023-10-09T00:23:24;6.20;;;2.38;;
80681;SDS011;70045;40.200;44.582;2023-10-09T00:25:50;7.00;;;2.17;;
80681;SDS011;70045;40.200;44.582;2023-10-09T00:28:15;8.95;;;2.65;;
80681;SDS011;70045;40.200;44.582;2023-10-09T00:30:43;6.85;;;2.70;;
80681;SDS011;70045;40.200;44.582;2023-10-09T00:33:08;5.57;;;2.10;;
80681;SDS011;70045;40.200;44.582;2023-10-09T00:35:37;6.65;;;2.30;;
80681;SDS011;70045;40.200;44.582;2023-10-09T00:38:03;7.47;;;2.28;;
80681;SDS011;70045;40.200;44.582;2023-10-09T00:40:32;7.07;;;3.03;;
80681;SDS011;70045;40.200;44.582;2023-10-09T00:43:01;10.05;;;2.75;;
80681;SDS011;70045;40.200;44.582;2023-10-09T00:45:27;6.82;;;2.70;;
80681;SDS011;70045;40.200;44.582;2023-10-09T00:47:52;6.13;;;2.20;;
80681;SDS011;70045;40.200;44.582;2023-10-09T00:50:19;6.70;;;2.78;;
80681;SDS011;70045;40.200;44.582;2023-10-09T00:52:45;9.43;;;2.38;;
80681;SDS011;70045;40.200;44.582;2023-10-09T00:55:20;6.25;;;2.30;;
80681;SDS011;70045;40.200;44.582;2023-10-09T00:57:46;5.20;;;2.28;;
80681;SDS011;70045;40.200;44.582;2023-10-09T01:00:21;6.68;;;2.30;;
80681;SDS011;70045;40.200;44.582;2023-10-09T01:02:47;6.65;;;2.67;;
80681;SDS011;70045;40.200;44.582;2023-10-09T01:05:12;6.93;;;2.70;;
80681;SDS011;70045;40.200;44.582;2023-10-09T01:07:38;6.00;;;2.03;;
80681;SDS011;70045;40.200;44.582;2023-10-09T01:10:04;5.75;;;2.03;;
80681;SDS011;70045;40.200;44.582;2023-10-09T01:12:33;8.60;;;2.20;;
80681;SDS011;70045;40.200;44.582;2023-10-09T01:14:59;8.20;;;2.58;;
80681;SDS011;70045;40.200;44.582;2023-10-09T01:17:24;6.60;;;2.55;;
80681;SDS011;70045;40.200;44.582;2023-10-09T01:19:49;6.45;;;2.38;;
80681;SDS011;70045;40.200;44.582;2023-10-09T01:22:15;10.25;;;2.45;;
80681;SDS011;70045;40.200;44.582;2023-10-09T01:24:44;10.68;;;2.50;;
80681;SDS011;70045;40.200;44.582;2023-10-09T01:27:09;7.47;;;2.72;;
80681;SDS011;70045;40.200;44.582;2023-10-09T01:29:35;6.85;;;2.50;;
80681;SDS011;70045;40.200;44.582;2023-10-09T01:32:00;7.53;;;2.47;;
80681;SDS011;70045;40.200;44.582;2023-10-09T01:34:32;6.55;;;2.50;;
80681;SDS011;70045;40.200;44.582;2023-10-09T01:37:02;5.10;;;2.10;;
80681;SDS011;70045;40.200;44.582;2023-10-09T01:39:27;8.55;;;2.67;;
80681;SDS011;70045;40.200;44.582;2023-10-09T01:41:53;6.88;;;2.30;;
80681;SDS011;70045;40.200;44.582;2023-10-09T01:44:20;6.15;;;2.10;;
80681;SDS011;70045;40.200;44.582;2023-10-09T01:46:45;5.65;;;2.47;;
80681;SDS011;70045;40.200;44.582;2023-10-09T01:49:14;8.05;;;2.40;;
80681;SDS011;70045;40.200;44.582;2023-10-09T01:51:40;4.93;;;1.98;;
80681;SDS011;70045;40.200;44.582;2023-10-09T01:54:05;9.13;;;2.45;;
80681;SDS011;70045;40.200;44.582;2023-10-09T01:56:30;7.05;;;2.70;;
80681;SDS011;70045;40.200;44.582;2023-10-09T01:58:56;6.90;;;2.70;;
80681;SDS011;70045;40.200;44.582;2023-10-09T02:01:24;5.20;;;2.13;;
80681;SDS011;70045;40.200;44.582;2023-10-09T02:03:49;7.93;;;2.63;;
80681;SDS011;70045;40.200;44.582;2023-10-09T02:06:15;7.63;;;2.95;;
80681;SDS011;70045;40.200;44.582;2023-10-09T02:08:40;9.02;;;2.70;;
80681;SDS011;70045;40.200;44.582;2023-10-09T02:11:05;5.82;;;2.30;;
80681;SDS011;70045;40.200;44.582;2023-10-09T02:13:33;5.78;;;2.22;;
80681;SDS011;70045;40.200;44.582;2023-10-09T02:15:59;6.00;;;2.50;;
80681;SDS011;70045;40.200;44.582;2023-10-09T02:18:24;6.40;;;2.53;;
80681;SDS011;70045;40.200;44.582;2023-10-09T02:20:58;6.97;;;2.80;;
80681;SDS011;70045;40.200;44.582;2023-10-09T02:23:33;6.40;;;2.85;;
80681;SDS011;70045;40.200;44.582;2023-10-09T02:26:07;8.80;;;2.67;;
80681;SDS011;70045;40.200;44.582;2023-10-09T02:28:33;8.82;;;2.83;;
80681;SDS011;70045;40.200;44.582;2023-10-09T02:30:59;7.03;;;2.42;;
80681;SDS011;70045;40.200;44.582;2023-10-09T02:33:25;6.55;;;2.50;;
80681;SDS011;70045;40.200;44.582;2023-10-09T02:35:54;8.88;;;3.00;;
80681;SDS011;70045;40.200;44.582;2023-10-09T02:38:20;10.55;;;2.80;;
80681;SDS011;70045;40.200;44.582;2023-10-09T02:40:45;7.93;;;2.65;;
80681;SDS011;70045;40.200;44.582;2023-10-09T02:43:11;6.57;;;2.67;;
80681;SDS011;70045;40.200;44.582;2023-10-09T02:45:36;8.20;;;2.75;;
80681;SDS011;70045;40.200;44.582;2023-10-09T02:48:08;9.18;;;2.40;;
80681;SDS011;70045;40.200;44.582;2023-10-09T02:50:36;8.63;;;2.70;;
80681;SDS011;70045;40.200;44.582;2023-10-09T02:53:02;8.10;;;2.70;;
80681;SDS011;70045;40.200;44.582;2023-10-09T02:55:27;10.77;;;2.95;;
80681;SDS011;70045;40.200;44.582;2023-10-09T02:57:55;11.98;;;2.92;;
80681;SDS011;70045;40.200;44.582;2023-10-09T03:00:25;10.20;;;2.47;;
80681;SDS011;70045;40.200;44.582;2023-10-09T03:02:50;8.25;;;2.55;;
80681;SDS011;70045;40.200;44.582;2023-10-09T03:05:16;12.23;;;2.92;;
80681;SDS011;70045;40.200;44.582;2023-10-09T03:07:41;9.93;;;2.88;;
80681;SDS011;70045;40.200;44.582;2023-10-09T03:10:07;7.63;;;2.85;;
80681;SDS011;70045;40.200;44.582;2023-10-09T03:12:36;9.02;;;2.92;;
80681;SDS011;70045;40.200;44.582;2023-10-09T03:15:02;9.88;;;2.60;;
80681;SDS011;70045;40.200;44.582;2023-10-09T03:17:28;8.13;;;2.63;;
80681;SDS011;70045;40.200;44.582;2023-10-09T03:19:54;9.75;;;2.47;;
80681;SDS011;70045;40.200;44.582;2023-10-09T03:22:19;8.50;;;2.75;;
80681;SDS011;70045;40.200;44.582;2023-10-09T03:24:51;9.27;;;2.60;;
80681;SDS011;70045;40.200;44.582;2023-10-09T03:27:17;10.65;;;3.00;;
80681;SDS011;70045;40.200;44.582;2023-10-09T03:29:42;9.35;;;2.75;;
80681;SDS011;70045;40.200;44.582;2023-10-09T03:32:08;6.30;;;2.55;;
80681;SDS011;70045;40.200;44.582;2023-10-09T03:34:33;8.18;;;2.60;;
80681;SDS011;70045;40.200;44.582;2023-10-09T03:37:01;7.97;;;2.60;;
80681;SDS011;70045;40.200;44.582;2023-10-09T03:39:27;7.22;;;2.42;;
80681;SDS011;70045;40.200;44.582;2023-10-09T03:41:52;7.00;;;2.72;;
80681;SDS011;70045;40.200;44.582;2023-10-09T03:44:18;9.05;;;2.83;;
80681;SDS011;70045;40.200;44.582;2023-10-09T03:46:44;10.60;;;2.63;;
80681;SDS011;70045;40.200;44.582;2023-10-09T03:49:13;10.95;;;3.08;;
80681;SDS011;70045;40.200;44.582;2023-10-09T03:51:38;11.32;;;2.80;;
80681;SDS011;70045;40.200;44.582;2023-10-09T03:54:04;6.82;;;2.58;;
80681;SDS011;70045;40.200;44.582;2023-10-09T03:56:29;6.57;;;2.42;;
80681;SDS011;70045;40.200;44.582;2023-10-09T03:58:55;7.13;;;2.83;;
80681;SDS011;70045;40.200;44.582;2023-10-09T04:01:24;11.32;;;2.97;;
80681;SDS011;70045;40.200;44.582;2023-10-09T04:03:50;11.23;;;3.03;;
80681;SDS011;70045;40.200;44.582;2023-10-09T04:06:16;12.00;;;3.42;;
80681;SDS011;70045;40.200;44.582;2023-10-09T04:08:41;12.07;;;3.13;;
80681;SDS011;70045;40.200;44.582;2023-10-09T04:11:06;9.02;;;3.03;;
80681;SDS011;70045;40.200;44.582;2023-10-09T04:13:38;11.05;;;3.40;;
80681;SDS011;70045;40.200;44.582;2023-10-09T04:16:03;11.77;;;3.38;;
80681;SDS011;70045;40.200;44.582;2023-10-09T04:18:29;14.57;;;3.40;;
80681;SDS011;70045;40.200;44.582;2023-10-09T04:20:54;16.67;;;3.60;;
80681;SDS011;70045;40.200;44.582;2023-10-09T04:23:19;13.30;;;3.33;;
80681;SDS011;70045;40.200;44.582;2023-10-09T04:25:48;12.30;;;3.28;;
80681;SDS011;70045;40.200;44.582;2023-10-09T04:28:13;8.52;;;3.42;;
80681;SDS011;70045;40.200;44.582;2023-10-09T04:30:38;8.75;;;2.95;;
80681;SDS011;70045;40.200;44.582;2023-10-09T04:33:04;11.18;;;3.45;;
80681;SDS011;70045;40.200;44.582;2023-10-09T04:35:30;12.07;;;3.65;;
80681;SDS011;70045;40.200;44.582;2023-10-09T04:38:02;8.55;;;2.75;;
80681;SDS011;70045;40.200;44.582;2023-10-09T04:40:28;7.40;;;2.80;;
80681;SDS011;70045;40.200;44.582;2023-10-09T04:42:53;11.77;;;3.70;;
80681;SDS011;70045;40.200;44.582;2023-10-09T04:45:18;9.68;;;3.30;;
80681;SDS011;70045;40.200;44.582;2023-10-09T04:47:45;12.38;;;3.47;;
80681;SDS011;70045;40.200;44.582;2023-10-09T04:50:15;12.35;;;3.60;;
80681;SDS011;70045;40.200;44.582;2023-10-09T04:52:41;11.88;;;3.00;;
80681;SDS011;70045;40.200;44.582;2023-10-09T04:55:07;10.40;;;3.40;;
80681;SDS011;70045;40.200;44.582;2023-10-09T04:57:51;9.13;;;3.05;;
80681;SDS011;70045;40.200;44.582;2023-10-09T05:00:23;16.50;;;4.03;;
80681;SDS011;70045;40.200;44.582;2023-10-09T05:02:49;6.57;;;2.75;;
80681;SDS011;70045;40.200;44.582;2023-10-09T05:05:14;11.45;;;3.70;;
80681;SDS011;70045;40.200;44.582;2023-10-09T05:07:39;9.38;;;3.13;;
80681;SDS011;70045;40.200;44.582;2023-10-09T05:10:06;15.05;;;3.45;;
80681;SDS011;70045;40.200;44.582;2023-10-09T05:12:36;10.85;;;3.38;;
80681;SDS011;70045;40.200;44.582;2023-10-09T05:15:01;16.13;;;3.35;;
80681;SDS011;70045;40.200;44.582;2023-10-09T05:17:27;13.52;;;3.13;;
80681;SDS011;70045;40.200;44.582;2023-10-09T05:19:52;12.70;;;3.50;;
80681;SDS011;70045;40.200;44.582;2023-10-09T05:22:17;11.75;;;3.58;;
80681;SDS011;70045;40.200;44.582;2023-10-09T05:24:49;12.45;;;4.28;;
80681;SDS011;70045;40.200;44.582;2023-10-09T05:27:14;12.52;;;4.07;;
80681;SDS011;70045;40.200;44.582;2023-10-09T05:29:40;10.95;;;3.40;;
80681;SDS011;70045;40.200;44.582;2023-10-09T05:32:06;13.85;;;4.22;;
80681;SDS011;70045;40.200;44.582;2023-10-09T05:34:32;8.55;;;3.50;;
80681;SDS011;70045;40.200;44.582;2023-10-09T05:37:05;14.80;;;4.63;;
80681;SDS011;70045;40.200;44.582;2023-10-09T05:39:35;7.97;;;3.25;;
80681;SDS011;70045;40.200;44.582;2023-10-09T05:42:01;8.35;;;3.42;;
80681;SDS011;70045;40.200;44.582;2023-10-09T05:44:26;7.93;;;3.10;;
80681;SDS011;70045;40.200;44.582;2023-10-09T05:46:51;10.85;;;3.55;;
80681;SDS011;70045;40.200;44.582;2023-10-09T05:49:23;10.38;;;3.78;;
80681;SDS011;70045;40.200;44.582;2023-10-09T05:51:51;9.20;;;3.30;;
80681;SDS011;70045;40.200;44.582;2023-10-09T05:54:16;8.40;;;3.58;;
80681;SDS011;70045;40.200;44.582;2023-10-09T05:56:42;8.95;;;3.17;;
80681;SDS011;70045;40.200;44.582;2023-10-09T05:59:07;13.23;;;3.50;;
80681;SDS011;70045;40.200;44.582;2023-10-09T06:01:38;10.63;;;3.75;;
80681;SDS011;70045;40.200;44.582;2023-10-09T06:04:03;11.93;;;4.00;;
80681;SDS011;70045;40.200;44.582;2023-10-09T06:06:29;11.27;;;3.45;;
80681;SDS011;70045;40.200;44.582;2023-10-09T06:08:54;9.60;;;3.55;;
80681;SDS011;70045;40.200;44.582;2023-10-09T06:11:19;11.05;;;3.80;;
80681;SDS011;70045;40.200;44.582;2023-10-09T06:13:51;9.30;;;3.60;;
80681;SDS011;70045;40.200;44.582;2023-10-09T06:16:17;8.18;;;3.20;;
80681;SDS011;70045;40.200;44.582;2023-10-09T06:18:42;9.18;;;3.35;;
80681;SDS011;70045;40.200;44.582;2023-10-09T06:21:07;12.95;;;3.50;;
80681;SDS011;70045;40.200;44.582;2023-10-09T06:23:37;9.93;;;3.28;;
80681;SDS011;70045;40.200;44.582;2023-10-09T06:26:02;8.85;;;3.30;;
80681;SDS011;70045;40.200;44.582;2023-10-09T06:28:28;10.55;;;3.13;;
80681;SDS011;70045;40.200;44.582;2023-10-09T06:30:53;12.75;;;4.10;;
80681;SDS011;70045;40.200;44.582;2023-10-09T06:33:19;8.98;;;3.45;;
80681;SDS011;70045;40.200;44.582;2023-10-09T06:35:51;7.93;;;2.90;;
80681;SDS011;70045;40.200;44.582;2023-10-09T06:38:16;9.35;;;3.08;;
80681;SDS011;70045;40.200;44.582;2023-10-09T06:40:46;10.13;;;3.28;;
80681;SDS011;70045;40.200;44.582;2023-10-09T06:43:12;10.50;;;3.35;;
80681;SDS011;70045;40.200;44.582;2023-10-09T06:45:41;13.07;;;3.70;;
80681;SDS011;70045;40.200;44.582;2023-10-09T06:48:13;10.18;;;3.85;;
80681;SDS011;70045;40.200;44.582;2023-10-09T06:50:39;9.05;;;3.20;;
80681;SDS011;70045;40.200;44.582;2023-10-09T06:53:04;8.07;;;3.10;;
80681;SDS011;70045;40.200;44.582;2023-10-09T06:55:35;8.88;;;3.63;;
80681;SDS011;70045;40.200;44.582;2023-10-09T06:58:01;11.52;;;3.78;;
80681;SDS011;70045;40.200;44.582;2023-10-09T07:00:37;8.82;;;3.40;;
80681;SDS011;70045;40.200;44.582;2023-10-09T07:03:06;9.68;;;3.58;;
80681;SDS011;70045;40.200;44.582;2023-10-09T07:05:31;12.45;;;3.65;;
80681;SDS011;70045;40.200;44.582;2023-10-09T07:08:06;9.85;;;3.30;;
80681;SDS011;70045;40.200;44.582;2023-10-09T07:10:32;9.05;;;3.47;;
80681;SDS011;70045;40.200;44.582;2023-10-09T07:12:57;8.43;;;3.47;;
80681;SDS011;70045;40.200;44.582;2023-10-09T07:15:23;10.20;;;3.58;;
80681;SDS011;70045;40.200;44.582;2023-10-09T07:17:49;9.95;;;3.75;;
80681;SDS011;70045;40.200;44.582;2023-10-09T07:20:21;9.55;;;3.58;;
80681;SDS011;70045;40.200;44.582;2023-10-09T07:22:46;7.68;;;3.20;;
80681;SDS011;70045;40.200;44.582;2023-10-09T07:25:12;8.07;;;3.30;;
80681;SDS011;70045;40.200;44.582;2023-10-09T07:27:37;12.05;;;3.33;;
80681;SDS011;70045;40.200;44.582;2023-10-09T07:30:13;12.98;;;4.15;;
80681;SDS011;70045;40.200;44.582;2023-10-09T07:32:39;14.48;;;4.13;;
80681;SDS011;70045;40.200;44.582;2023-10-09T07:35:04;13.23;;;4.50;;
80681;SDS011;70045;40.200;44.582;2023-10-09T07:37:30;12.68;;;3.70;;
80681;SDS011;70045;40.200;44.582;2023-10-09T07:39:56;14.65;;;4.05;;
80681;SDS011;70045;40.200;44.582;2023-10-09T07:42:31;10.75;;;3.88;;
80681;SDS011;70045;40.200;44.582;2023-10-09T07:44:56;9.88;;;3.50;;
80681;SDS011;70045;40.200;44.582;2023-10-09T07:47:22;11.20;;;3.75;;
80681;SDS011;70045;40.200;44.582;2023-10-09T07:49:47;9.73;;;3.60;;
80681;SDS011;70045;40.200;44.582;2023-10-09T07:52:12;9.68;;;3.60;;
80681;SDS011;70045;40.200;44.582;2023-10-09T07:54:44;10.85;;;3.50;;
80681;SDS011;70045;40.200;44.582;2023-10-09T07:57:09;8.75;;;3.70;;
80681;SDS011;70045;40.200;44.582;2023-10-09T07:59:35;9.90;;;3.58;;
80681;SDS011;70045;40.200;44.582;2023-10-09T08:02:00;10.15;;;4.05;;
80681;SDS011;70045;40.200;44.582;2023-10-09T08:04:27;10.02;;;3.80;;
80681;SDS011;70045;40.200;44.582;2023-10-09T08:06:55;10.25;;;3.78;;
80681;SDS011;70045;40.200;44.582;2023-10-09T08:09:21;9.43;;;3.97;;
80681;SDS011;70045;40.200;44.582;2023-10-09T08:11:47;14.20;;;4.22;;
80681;SDS011;70045;40.200;44.582;2023-10-09T08:14:13;12.07;;;4.22;;
80681;SDS011;70045;40.200;44.582;2023-10-09T08:16:39;9.07;;;3.45;;
80681;SDS011;70045;40.200;44.582;2023-10-09T08:19:14;9.68;;;3.50;;
80681;SDS011;70045;40.200;44.582;2023-10-09T08:21:39;8.45;;;3.95;;
80681;SDS011;70045;40.200;44.582;2023-10-09T08:24:05;12.23;;;3.85;;
80681;SDS011;70045;40.200;44.582;2023-10-09T08:26:30;10.82;;;4.30;;
80681;SDS011;70045;40.200;44.582;2023-10-09T08:28:57;12.45;;;4.13;;
80681;SDS011;70045;40.200;44.582;2023-10-09T08:31:31;13.35;;;4.18;;
80681;SDS011;70045;40.200;44.582;2023-10-09T08:33:56;10.75;;;3.88;;
80681;SDS011;70045;40.200;44.582;2023-10-09T08:36:22;8.60;;;4.00;;
80681;SDS011;70045;40.200;44.582;2023-10-09T08:38:51;11.48;;;3.92;;
80681;SDS011;70045;40.200;44.582;2023-10-09T08:41:16;11.43;;;4.57;;
80681;SDS011;70045;40.200;44.582;2023-10-09T08:43:50;8.00;;;3.85;;
80681;SDS011;70045;40.200;44.582;2023-10-09T08:46:25;9.60;;;4.25;;
80681;SDS011;70045;40.200;44.582;2023-10-09T08:48:53;8.07;;;3.90;;
80681;SDS011;70045;40.200;44.582;2023-10-09T08:51:20;10.40;;;4.20;;
80681;SDS011;70045;40.200;44.582;2023-10-09T08:53:46;9.50;;;3.60;;
80681;SDS011;70045;40.200;44.582;2023-10-09T08:56:18;11.38;;;4.18;;
80681;SDS011;70045;40.200;44.582;2023-10-09T08:58:46;9.60;;;4.00;;
80681;SDS011;70045;40.200;44.582;2023-10-09T09:01:15;10.05;;;3.92;;
80681;SDS011;70045;40.200;44.582;2023-10-09T09:03:41;9.60;;;3.97;;
80681;SDS011;70045;40.200;44.582;2023-10-09T09:06:10;10.43;;;4.10;;
80681;SDS011;70045;40.200;44.582;2023-10-09T10:09:43;14.00;;;4.47;;
80681;SDS011;70045;40.200;44.582;2023-10-09T10:12:08;12.50;;;4.13;;
80681;SDS011;70045;40.200;44.582;2023-10-09T10:14:51;10.23;;;4.00;;
80681;SDS011;70045;40.200;44.582;2023-10-09T10:17:24;9.70;;;3.95;;
80681;SDS011;70045;40.200;44.582;2023-10-09T10:22:27;10.57;;;4.22;;
80681;SDS011;70045;40.200;44.582;2023-10-09T10:24:53;8.50;;;3.90;;
80681;SDS011;70045;40.200;44.582;2023-10-09T10:27:22;11.27;;;4.03;;
80681;SDS011;70045;40.200;44.582;2023-10-09T10:35:19;9.65;;;3.90;;
80681;SDS011;70045;40.200;44.582;2023-10-09T10:37:45;13.57;;;4.40;;
80681;SDS011;70045;40.200;44.582;2023-10-09T10:40:11;9.43;;;3.75;;
80681;SDS011;70045;40.200;44.582;2023-10-09T10:42:48;10.35;;;4.25;;
80681;SDS011;70045;40.200;44.582;2023-10-09T10:45:17;10.43;;;4.00;;
80681;SDS011;70045;40.200;44.582;2023-10-09T10:47:43;8.60;;;4.00;;
80681;SDS011;70045;40.200;44.582;2023-10-09T10:50:08;11.48;;;4.40;;
80681;SDS011;70045;40.200;44.582;2023-10-09T10:52:34;11.82;;;3.92;;
80681;SDS011;70045;40.200;44.582;2023-10-09T10:55:12;12.15;;;4.40;;
80681;SDS011;70045;40.200;44.582;2023-10-09T10:57:39;12.88;;;3.90;;
80681;SDS011;70045;40.200;44.582;2023-10-09T11:00:11;10.85;;;4.30;;
80681;SDS011;70045;40.200;44.582;2023-10-09T11:02:39;9.50;;;4.10;;
80681;SDS011;70045;40.200;44.582;2023-10-09T11:05:08;11.05;;;4.45;;
80681;SDS011;70045;40.200;44.582;2023-10-09T11:07:40;10.48;;;4.30;;
80681;SDS011;70045;40.200;44.582;2023-10-09T11:10:06;10.27;;;4.70;;
80681;SDS011;70045;40.200;44.582;2023-10-09T11:12:32;12.45;;;4.93;;
80681;SDS011;70045;40.200;44.582;2023-10-09T11:15:14;13.75;;;4.35;;
80681;SDS011;70045;40.200;44.582;2023-10-09T11:20:27;14.48;;;4.32;;
80681;SDS011;70045;40.200;44.582;2023-10-09T11:22:54;11.30;;;4.45;;
80681;SDS011;70045;40.200;44.582;2023-10-09T11:25:19;12.30;;;5.03;;
80681;SDS011;70045;40.200;44.582;2023-10-09T11:27:51;11.35;;;4.57;;
80681;SDS011;70045;40.200;44.582;2023-10-09T11:30:16;13.82;;;5.03;;
80681;SDS011;70045;40.200;44.582;2023-10-09T11:32:43;11.98;;;4.80;;
80681;SDS011;70045;40.200;44.582;2023-10-09T11:35:12;10.10;;;4.68;;
80681;SDS011;70045;40.200;44.582;2023-10-09T11:37:39;12.35;;;4.70;;
80681;SDS011;70045;40.200;44.582;2023-10-09T11:40:30;12.20;;;5.10;;
80681;SDS011;70045;40.200;44.582;2023-10-09T11:42:59;15.93;;;5.38;;
80681;SDS011;70045;40.200;44.582;2023-10-09T11:45:29;11.50;;;5.00;;
80681;SDS011;70045;40.200;44.582;2023-10-09T11:47:58;16.63;;;5.10;;
80681;SDS011;70045;40.200;44.582;2023-10-09T11:50:44;13.43;;;5.00;;
80681;SDS011;70045;40.200;44.582;2023-10-09T11:53:10;15.35;;;5.15;;
80681;SDS011;70045;40.200;44.582;2023-10-09T11:55:49;14.27;;;5.60;;
80681;SDS011;70045;40.200;44.582;2023-10-09T11:58:17;17.08;;;5.32;;
80681;SDS011;70045;40.200;44.582;2023-10-09T12:00:43;12.50;;;5.15;;
80681;SDS011;70045;40.200;44.582;2023-10-09T12:03:09;14.95;;;5.35;;
80681;SDS011;70045;40.200;44.582;2023-10-09T12:05:35;12.23;;;4.82;;
80681;SDS011;70045;40.200;44.582;2023-10-09T12:08:03;20.85;;;4.70;;
80681;SDS011;70045;40.200;44.582;2023-10-09T12:10:29;17.02;;;4.85;;
80681;SDS011;70045;40.200;44.582;2023-10-09T12:12:55;15.43;;;4.10;;
80681;SDS011;70045;40.200;44.582;2023-10-09T12:15:20;17.85;;;4.20;;
80681;SDS011;70045;40.200;44.582;2023-10-09T12:17:46;13.13;;;4.57;;
80681;SDS011;70045;40.200;44.582;2023-10-09T12:20:19;16.38;;;4.57;;
80681;SDS011;70045;40.200;44.582;2023-10-09T12:22:44;17.67;;;4.38;;
80681;SDS011;70045;40.200;44.582;2023-10-09T12:25:10;15.23;;;4.78;;
80681;SDS011;70045;40.200;44.582;2023-10-09T12:27:36;19.95;;;4.63;;
80681;SDS011;70045;40.200;44.582;2023-10-09T12:30:05;12.50;;;4.00;;
80681;SDS011;70045;40.200;44.582;2023-10-09T12:32:37;10.07;;;3.95;;
80681;SDS011;70045;40.200;44.582;2023-10-09T12:35:02;7.10;;;3.70;;
80681;SDS011;70045;40.200;44.582;2023-10-09T12:37:28;17.48;;;4.28;;
80681;SDS011;70045;40.200;44.582;2023-10-09T12:39:54;8.70;;;4.25;;
80681;SDS011;70045;40.200;44.582;2023-10-09T12:42:19;11.38;;;3.85;;
80681;SDS011;70045;40.200;44.582;2023-10-09T12:44:53;13.00;;;4.15;;
80681;SDS011;70045;40.200;44.582;2023-10-09T12:47:19;10.32;;;4.30;;
80681;SDS011;70045;40.200;44.582;2023-10-09T12:49:44;14.23;;;4.30;;
80681;SDS011;70045;40.200;44.582;2023-10-09T12:52:10;15.05;;;4.75;;
80681;SDS011;70045;40.200;44.582;2023-10-09T12:54:46;13.77;;;4.50;;
80681;SDS011;70045;40.200;44.582;2023-10-09T12:57:16;9.73;;;4.50;;
80681;SDS011;70045;40.200;44.582;2023-10-09T12:59:41;12.23;;;5.18;;
80681;SDS011;70045;40.200;44.582;2023-10-09T13:02:07;14.45;;;5.05;;
80681;SDS011;70045;40.200;44.582;2023-10-09T13:04:33;17.02;;;5.85;;
80681;SDS011;70045;40.200;44.582;2023-10-09T13:06:58;11.27;;;4.65;;
80681;SDS011;70045;40.200;44.582;2023-10-09T13:09:29;12.27;;;4.60;;
80681;SDS011;70045;40.200;44.582;2023-10-09T13:11:54;13.60;;;5.38;;
80681;SDS011;70045;40.200;44.582;2023-10-09T13:14:20;19.08;;;5.60;;
80681;SDS011;70045;40.200;44.582;2023-10-09T13:16:45;18.90;;;6.03;;
80681;SDS011;70045;40.200;44.582;2023-10-09T13:19:11;11.85;;;5.22;;
80681;SDS011;70045;40.200;44.582;2023-10-09T13:21:43;13.57;;;5.70;;
80681;SDS011;70045;40.200;44.582;2023-10-09T13:24:15;13.85;;;5.53;;
80681;SDS011;70045;40.200;44.582;2023-10-09T13:26:41;14.80;;;6.03;;
80681;SDS011;70045;40.200;44.582;2023-10-09T13:29:07;20.20;;;5.20;;
80681;SDS011;70045;40.200;44.582;2023-10-09T13:31:32;12.20;;;5.35;;
80681;SDS011;70045;40.200;44.582;2023-10-09T13:33:58;10.82;;;4.65;;
80681;SDS011;70045;40.200;44.582;2023-10-09T13:36:30;10.77;;;4.72;;
80681;SDS011;70045;40.200;44.582;2023-10-09T13:38:59;16.70;;;5.10;;
80681;SDS011;70045;40.200;44.582;2023-10-09T13:41:25;13.90;;;5.45;;
80681;SDS011;70045;40.200;44.582;2023-10-09T13:43:50;14.05;;;5.03;;
80681;SDS011;70045;40.200;44.582;2023-10-09T13:46:23;15.07;;;4.80;;
80681;SDS011;70045;40.200;44.582;2023-10-09T13:48:49;10.57;;;4.60;;
80681;SDS011;70045;40.200;44.582;2023-10-09T13:51:14;11.55;;;5.05;;
80681;SDS011;70045;40.200;44.582;2023-10-09T13:53:41;16.27;;;4.70;;
80681;SDS011;70045;40.200;44.582;2023-10-09T13:56:10;11.07;;;4.28;;
80681;SDS011;70045;40.200;44.582;2023-10-09T13:58:51;15.02;;;4.40;;
80681;SDS011;70045;40.200;44.582;2023-10-09T14:01:17;9.45;;;4.30;;
80681;SDS011;70045;40.200;44.582;2023-10-09T14:03:47;12.88;;;4.82;;
80681;SDS011;70045;40.200;44.582;2023-10-09T14:06:12;13.77;;;5.20;;
80681;SDS011;70045;40.200;44.582;2023-10-09T14:08:38;13.73;;;4.95;;
80681;SDS011;70045;40.200;44.582;2023-10-09T14:11:08;14.98;;;6.15;;
80681;SDS011;70045;40.200;44.582;2023-10-09T14:13:34;14.13;;;5.80;;
80681;SDS011;70045;40.200;44.582;2023-10-09T14:15:59;19.95;;;5.50;;
80681;SDS011;70045;40.200;44.582;2023-10-09T14:18:25;14.13;;;5.55;;
80681;SDS011;70045;40.200;44.582;2023-10-09T14:20:50;16.33;;;5.50;;
80681;SDS011;70045;40.200;44.582;2023-10-09T14:23:24;13.45;;;5.00;;
80681;SDS011;70045;40.200;44.582;2023-10-09T14:25:50;17.73;;;5.25;;
80681;SDS011;70045;40.200;44.582;2023-10-09T14:28:15;13.40;;;5.70;;
80681;SDS011;70045;40.200;44.582;2023-10-09T14:30:41;10.27;;;5.07;;
80681;SDS011;70045;40.200;44.582;2023-10-09T14:33:06;14.65;;;4.80;;
80681;SDS011;70045;40.200;44.582;2023-10-09T14:35:42;13.23;;;5.00;;
80681;SDS011;70045;40.200;44.582;2023-10-09T14:38:09;15.05;;;5.70;;
80681;SDS011;70045;40.200;44.582;2023-10-09T14:40:34;18.70;;;5.25;;
80681;SDS011;70045;40.200;44.582;2023-10-09T14:51:44;18.80;;;5.25;;
80681;SDS011;70045;40.200;44.582;2023-10-09T14:54:09;14.90;;;4.95;;
80681;SDS011;70045;40.200;44.582;2023-10-09T14:56:34;13.27;;;4.32;;
80681;SDS011;70045;40.200;44.582;2023-10-09T14:59:00;18.83;;;4.95;;
80681;SDS011;70045;40.200;44.582;2023-10-09T15:01:25;15.90;;;4.40;;
80681;SDS011;70045;40.200;44.582;2023-10-09T15:03:58;18.80;;;4.93;;
80681;SDS011;70045;40.200;44.582;2023-10-09T15:06:24;13.00;;;4.63;;
80681;SDS011;70045;40.200;44.582;2023-10-09T15:08:49;14.18;;;3.95;;
80681;SDS011;70045;40.200;44.582;2023-10-09T15:11:15;24.10;;;5.63;;
80681;SDS011;70045;40.200;44.582;2023-10-09T15:13:40;17.40;;;4.75;;
80681;SDS011;70045;40.200;44.582;2023-10-09T15:16:09;16.27;;;4.35;;
80681;SDS011;70045;40.200;44.582;2023-10-09T15:18:34;14.98;;;4.50;;
80681;SDS011;70045;40.200;44.582;2023-10-09T15:20:59;11.07;;;4.15;;
80681;SDS011;70045;40.200;44.582;2023-10-09T15:23:25;13.60;;;5.32;;
80681;SDS011;70045;40.200;44.582;2023-10-09T15:25:51;13.45;;;5.20;;
80681;SDS011;70045;40.200;44.582;2023-10-09T15:28:24;9.90;;;4.15;;
80681;SDS011;70045;40.200;44.582;2023-10-09T15:30:49;13.75;;;5.30;;
80681;SDS011;70045;40.200;44.582;2023-10-09T15:33:15;13.07;;;5.05;;
80681;SDS011;70045;40.200;44.582;2023-10-09T15:35:40;20.55;;;5.30;;
80681;SDS011;70045;40.200;44.582;2023-10-09T15:38:07;12.77;;;4.93;;
80681;SDS011;70045;40.200;44.582;2023-10-09T15:40:36;10.75;;;4.70;;
80681;SDS011;70045;40.200;44.582;2023-10-09T15:43:03;9.13;;;4.82;;
80681;SDS011;70045;40.200;44.582;2023-10-09T15:45:29;10.80;;;5.28;;
80681;SDS011;70045;40.200;44.582;2023-10-09T15:47:54;14.23;;;4.93;;